Time;durP1;ratioP1;P1;durP2;ratioP2;P2;SDS_P1;SDS_P2;PMS_P1;PMS_P2;Temp;Humidity;BMP_temperature;BMP_pressure;BME280_temperature;BME280_humidity;BME280_pressure;Samples;Min_cycle;Max_cycle;Signal;HPM_P1;HPM_P2
2023/09/05 11:07:44;;;;;;;;;;;;;;;;;;5086367;28;20495;-88
2023/09/05 11:10:11;;;;;;;;;;;;;;;;;;5077043;28;19924;-88
2023/09/05 11:12:39;;;;;;;;;;;;;;;;;;5077238;28;19988;-88
2023/09/05 11:15:05;;;;;;;;;;;;;;;;;;5066177;28;19920;-87
2023/09/05 11:17:31;;;;;;;;;;;;;;;;;;5081225;28;20495;-87
2023/09/05 11:19:57;;;;;;;;;;;;;;;;;;5084739;28;19919;-87
2023/09/05 11:23:05;;;;;;;;;;;;;;;;;;5086583;28;19927;-88
2023/09/05 11:25:12;;;;;;;;;;;;;;;;;;5085736;28;20018;-88
2023/09/05 11:27:40;;;;;;;;;;;;;;;;;;5080849;28;19926;-88
2023/09/05 11:30:09;;;;;;;;;;;;;;;;;;5085061;28;19920;-88
2023/09/05 11:32:38;;;;;;;;;;;;;;;;;;5084664;28;19924;-88
2023/09/05 11:35:04;;;;;;;;;;;;;;;;;;5084786;28;20440;-87
2023/09/05 11:37:30;;;;;;;;;;;;;;;;;;5086189;28;19926;-88
2023/09/05 11:39:56;;;;;;;;;;;;;;;;;;5084786;28;19927;-87
2023/09/05 11:42:22;;;;;;;;;;;;;;;;;;5086212;28;19919;-88
2023/09/05 11:44:49;;;;;;;;;;;;;;;;;;5085234;28;19919;-88
2023/09/05 11:47:17;;;;;;;;;;;;;;;;;;5088457;28;19975;-87
2023/09/05 11:49:43;;;;;;;;;;;;;;;;;;5085874;28;19924;-88
2023/09/05 11:52:09;;;;;;;;;;;;;;;;;;5085633;28;19928;-87
2023/09/05 11:54:35;;;;;;;;;;;;;;;;;;5082115;28;20487;-87
2023/09/05 11:57:02;;;;;;;;;;;;;;;;;;5086674;28;20026;-87
2023/09/05 11:59:28;;;;;;;;;;;;;;;;;;5084663;28;20535;-88
2023/09/05 12:01:54;;;;;;;;;;;;;;;;;;5084765;28;19927;-87
2023/09/05 12:04:20;;;;;;;;;;;;;;;;;;5083634;28;19975;-88
2023/09/05 12:06:46;;;;;;;;;;;;;;;;;;5085971;28;20009;-88
2023/09/05 12:09:12;;;;;;;;;;;;;;;;;;5068955;28;20506;-87
2023/09/05 12:11:38;;;;;;;;;;;;;;;;;;5071394;28;19915;-88
2023/09/05 12:14:09;;;;;;;;;;;;;;;;;;5085092;28;19924;-90
2023/09/05 12:16:35;;;;;;;;;;;;;;;;;;5084078;28;19941;-88
2023/09/05 12:19:01;;;;;;;;;;;;;;;;;;5062052;28;19920;-87
2023/09/05 12:21:28;;;;;;;;;;;;;;;;;;5070493;28;19999;-88
2023/09/05 12:23:54;;;;;;;;;;;;;;;;;;5051097;28;19915;-87
2023/09/05 12:26:21;;;;;;;;;;;;;;;;;;5053140;28;19924;-85
2023/09/05 12:28:47;;;;;;;;;;;;;;;;;;5069185;28;19944;-84
2023/09/05 12:31:15;;;;;;;;;;;;;;;;;;5071301;28;19920;-85
2023/09/05 12:33:41;;;;;;;;;;;;;;;;;;5072945;28;19927;-89
2023/09/05 12:36:07;;;;;;;;;;;;;;;;;;5072698;28;20016;-87
2023/09/05 12:38:33;;;;;;;;;;;;;;;;;;5072591;28;19924;-88
2023/09/05 12:40:59;;;;;;;;;;;;;;;;;;5070424;28;20365;-88
2023/09/05 12:43:25;;;;;;;;;;;;;;;;;;5070265;28;20367;-87
2023/09/05 12:45:51;;;;;;;;;;;;;;;;;;5071204;28;19919;-84
2023/09/05 12:48:17;;;;;;;;;;;;;;;;;;5071604;28;20342;-85
2023/09/05 12:50:45;;;;;;;;;;;;;;;;;;5069544;28;19920;-85
2023/09/05 12:53:11;;;;;;;;;;;;;;;;;;5069621;28;20329;-85
2023/09/05 12:55:37;;;;;;;;;;;;;;;;;;5069986;28;19915;-84
2023/09/05 12:58:03;;;;;;;;;;;;;;;;;;5070069;28;19927;-84
2023/09/05 13:00:29;;;;;;;;;;;;;;;;;;5070488;28;19920;-87
2023/09/05 13:02:55;;;;;;;;;;;;;;;;;;5069755;28;19940;-86
2023/09/05 13:05:21;;;;;;;;;;;;;;;;;;5057135;28;19929;-83
2023/09/05 13:07:47;;;;;;;;;;;;;;;;;;5066455;28;19927;-85
2023/09/05 13:10:12;;;;;;;;;;;;;;;;;;5071628;28;19974;-85
2023/09/05 13:12:38;;;;;;;;;;;;;;;;;;5065468;28;19924;-85
2023/09/05 13:15:04;;;;;;;;;;;;;;;;;;5065455;28;19920;-85
2023/09/05 13:17:30;;;;;;;;;;;;;;;;;;5069103;28;19931;-83
2023/09/05 13:19:56;;;;;;;;;;;;;;;;;;5071160;28;19957;-85
2023/09/05 13:22:22;;;;;;;;;;;;;;;;;;5072150;28;19920;-85
2023/09/05 13:24:48;;;;;;;;;;;;;;;;;;5074499;28;19922;-84
2023/09/05 13:27:14;;;;;;;;;;;;;;;;;;5072968;28;19924;-84
2023/09/05 13:29:40;;;;;;;;;;;;;;;;;;5071597;28;19927;-84
2023/09/05 13:32:08;;;;;;;;;;;;;;;;;;5070506;28;20528;-85
2023/09/05 13:34:34;;;;;;;;;;;;;;;;;;5070528;28;19924;-85
2023/09/05 13:37:00;;;;;;;;;;;;;;;;;;5069392;28;20518;-86
2023/09/05 13:39:26;;;;;;;;;;;;;;;;;;5069415;28;19930;-86
2023/09/05 13:41:52;;;;;;;;;;;;;;;;;;5070109;28;19924;-86
2023/09/05 13:44:18;;;;;;;;;;;;;;;;;;5064256;28;19926;-85
2023/09/05 13:46:46;;;;;;;;;;;;;;;;;;5062914;28;19999;-86
2023/09/05 13:49:12;;;;;;;;;;;;;;;;;;5071613;28;19950;-85
2023/09/05 13:51:38;;;;;;;;;;;;;;;;;;5074875;28;20015;-85
2023/09/05 13:54:05;;;;;;;;;;;;;;;;;;5069694;28;19987;-85
2023/09/05 13:56:34;;;;;;;;;;;;;;;;;;5071191;28;20431;-85
2023/09/05 13:59:00;;;;;;;;;;;;;;;;;;5069806;28;20018;-83
2023/09/05 14:01:26;;;;;;;;;;;;;;;;;;5065241;28;19978;-84
2023/09/05 14:03:52;;;;;;;;;;;;;;;;;;5100709;22;20042;-85
2023/09/05 14:46:27;;;;;;;;;;;;;;;;;;5814502;22;19946;-84
2023/09/05 15:00:07;;;;;;;;;;;;;;;;;;5098629;28;19958;-83
2023/09/05 15:05:18;;;;;;;;;;;;;;;;;;5098953;28;19921;-85
2023/09/05 15:07:46;;;;;;;;;;;;;;;;;;5094653;28;19915;-84
2023/09/05 15:10:12;;;;;;;;;;;;;;;;;;5092488;28;19915;-83
2023/09/05 15:12:38;;;;;;;;;;;;;;;;;;5070376;28;19922;-84
2023/09/05 15:15:04;;;;;;;;;;;;;;;;;;5052193;28;19915;-84
2023/09/05 15:17:30;;;;;;;;;;;;;;;;;;5052449;28;20055;-84
2023/09/05 15:19:56;;;;;;;;;;;;;;;;;;5052057;28;19915;-84
2023/09/05 15:22:22;;;;;;;;;;;;;;;;;;5070202;28;20437;-85
2023/09/05 15:24:48;;;;;;;;;;;;;;;;;;5056204;28;19915;-84
2023/09/05 15:27:14;;;;;;;;;;;;;;;;;;5090588;28;19924;-84
2023/09/05 15:29:40;;;;;;;;;;;;;;;;;;5090742;28;19919;-84
2023/09/05 15:32:05;;;;;;;;;;;;;;;;;;5072153;28;19915;-85
2023/09/05 15:34:32;;;;;;;;;;;;;;;;;;5071746;28;20449;-84
2023/09/05 15:36:58;;;;;;;;;;;;;;;;;;5072361;28;20486;-84
2023/09/05 15:39:24;;;;;;;;;;;;;;;;;;5072196;28;19915;-85
2023/09/05 15:42:03;;;;;;;;;;;;;;;;;;5093329;28;19922;-87
2023/09/05 15:44:31;;;;;;;;;;;;;;;;;;5081237;28;20332;-84
2023/09/05 15:46:57;;;;;;;;;;;;;;;;;;5098114;28;19957;-86
2023/09/05 15:49:23;;;;;;;;;;;;;;;;;;5074023;28;20585;-84
2023/09/05 15:51:49;;;;;;;;;;;;;;;;;;5089971;28;19915;-84
2023/09/05 15:54:16;;;;;;;;;;;;;;;;;;5074848;28;20031;-84
2023/09/05 15:56:42;;;;;;;;;;;;;;;;;;5093795;28;19915;-87
2023/09/05 15:59:08;;;;;;;;;;;;;;;;;;5092927;28;20444;-85
2023/09/05 16:01:34;;;;;;;;;;;;;;;;;;5074880;28;19976;-84
2023/09/05 16:04:00;;;;;;;;;;;;;;;;;;5092219;28;19919;-85
2023/09/05 16:06:26;;;;;;;;;;;;;;;;;;5092308;28;19988;-85
2023/09/05 16:08:52;;;;;;;;;;;;;;;;;;5075067;28;19915;-84
2023/09/05 16:11:18;;;;;;;;;;;;;;;;;;5074426;28;19915;-86
2023/09/05 16:13:44;;;;;;;;;;;;;;;;;;5092024;28;19915;-88
2023/09/05 16:16:16;;;;;;;;;;;;;;;;;;5071381;28;20014;-84
2023/09/05 16:18:42;;;;;;;;;;;;;;;;;;5073922;28;19962;-85
2023/09/05 16:21:08;;;;;;;;;;;;;;;;;;5090937;28;20531;-86
2023/09/05 16:23:34;;;;;;;;;;;;;;;;;;5092526;28;20013;-86
2023/09/05 16:26:00;;;;;;;;;;;;;;;;;;5092563;28;19919;-86
2023/09/05 16:28:26;;;;;;;;;;;;;;;;;;5068528;28;19928;-83
2023/09/05 16:30:53;;;;;;;;;;;;;;;;;;5090747;28;19976;-84
2023/09/05 16:33:18;;;;;;;;;;;;;;;;;;5069995;28;19931;-84
2023/09/05 16:35:44;;;;;;;;;;;;;;;;;;5089950;28;19914;-84
2023/09/05 16:38:10;;;;;;;;;;;;;;;;;;5087451;28;19919;-83
2023/09/05 16:40:36;;;;;;;;;;;;;;;;;;5064474;28;20387;-83
2023/09/05 16:43:02;;;;;;;;;;;;;;;;;;5089522;28;20018;-87
2023/09/05 16:45:28;;;;;;;;;;;;;;;;;;5090223;28;19928;-89
2023/09/05 16:47:54;;;;;;;;;;;;;;;;;;5091043;28;20350;-84
2023/09/05 16:50:20;;;;;;;;;;;;;;;;;;5089905;28;20452;-85
2023/09/05 16:52:46;;;;;;;;;;;;;;;;;;5090021;28;19920;-84
2023/09/05 16:55:12;;;;;;;;;;;;;;;;;;5090073;28;19915;-84
2023/09/05 16:57:38;;;;;;;;;;;;;;;;;;5072308;28;19911;-84
2023/09/05 17:00:03;;;;;;;;;;;;;;;;;;5085936;28;20445;-84
2023/09/05 17:02:29;;;;;;;;;;;;;;;;;;5070835;28;19962;-83
2023/09/05 17:04:55;;;;;;;;;;;;;;;;;;5087931;28;19944;-85
2023/09/05 17:07:21;;;;;;;;;;;;;;;;;;5073042;28;19920;-86
2023/09/05 17:09:48;;;;;;;;;;;;;;;;;;5102544;28;20489;-83
2023/09/05 17:12:14;;;;;;;;;;;;;;;;;;5092340;28;19920;-84
2023/09/05 17:14:40;;;;;;;;;;;;;;;;;;5071334;28;19972;-83
2023/09/05 17:17:05;;;;;;;;;;;;;;;;;;5070273;28;20329;-83
2023/09/05 17:19:31;;;;;;;;;;;;;;;;;;5097491;28;19915;-82
2023/09/05 17:21:57;;;;;;;;;;;;;;;;;;5080001;28;19914;-84
2023/09/05 17:24:23;;;;;;;;;;;;;;;;;;5102888;28;19915;-83
2023/09/05 17:26:49;;;;;;;;;;;;;;;;;;5074373;28;19957;-83
2023/09/05 17:29:16;;;;;;;;;;;;;;;;;;5103386;28;19915;-84
2023/09/05 17:31:43;;;;;;;;;;;;;;;;;;5076513;28;19958;-85
2023/09/05 17:34:11;;;;;;;;;;;;;;;;;;5074462;28;20511;-84
2023/09/05 17:36:37;;;;;;;;;;;;;;;;;;5075709;28;20023;-84
2023/09/05 17:39:03;;;;;;;;;;;;;;;;;;5075358;28;20000;-84
2023/09/05 17:41:29;;;;;;;;;;;;;;;;;;5098325;28;19971;-83
2023/09/05 17:43:55;;;;;;;;;;;;;;;;;;5091444;28;20401;-84
2023/09/05 17:46:21;;;;;;;;;;;;;;;;;;5098954;28;20341;-83
2023/09/05 17:48:47;;;;;;;;;;;;;;;;;;5074724;28;19961;-83
2023/09/05 17:51:15;;;;;;;;;;;;;;;;;;5075643;28;19966;-83
2023/09/05 17:53:41;;;;;;;;;;;;;;;;;;5101594;28;19921;-83
2023/09/05 17:56:07;;;;;;;;;;;;;;;;;;5071680;28;19919;-82
2023/09/05 17:58:33;;;;;;;;;;;;;;;;;;5094581;28;20425;-83
2023/09/05 18:00:59;;;;;;;;;;;;;;;;;;5098688;28;19919;-86
2023/09/05 18:03:25;;;;;;;;;;;;;;;;;;5060264;28;19919;-83
2023/09/05 18:05:51;;;;;;;;;;;;;;;;;;5090109;28;20442;-83
2023/09/05 18:08:17;;;;;;;;;;;;;;;;;;5087534;28;19920;-81
2023/09/05 18:10:43;;;;;;;;;;;;;;;;;;5091270;28;19919;-83
2023/09/05 18:13:08;;;;;;;;;;;;;;;;;;5090022;28;19919;-88
2023/09/05 18:15:34;;;;;;;;;;;;;;;;;;5071757;28;20019;-85
2023/09/05 18:18:00;;;;;;;;;;;;;;;;;;5057493;28;19977;-86
2023/09/05 18:20:27;;;;;;;;;;;;;;;;;;5071698;28;19926;-85
2023/09/05 18:22:53;;;;;;;;;;;;;;;;;;5069820;28;19915;-85
2023/09/05 18:25:19;;;;;;;;;;;;;;;;;;5088822;28;19931;-83
2023/09/05 18:27:46;;;;;;;;;;;;;;;;;;5090467;28;19923;-82
2023/09/05 18:30:12;;;;;;;;;;;;;;;;;;5079009;28;20028;-84
2023/09/05 18:32:38;;;;;;;;;;;;;;;;;;5075885;28;20555;-83
2023/09/05 18:35:04;;;;;;;;;;;;;;;;;;5082788;28;20455;-83
2023/09/05 18:37:30;;;;;;;;;;;;;;;;;;5085149;28;19919;-83
2023/09/05 18:39:56;;;;;;;;;;;;;;;;;;5061561;28;19944;-85
2023/09/05 18:42:35;;;;;;;;;;;;;;;;;;;;;
2023/09/05 19:40:10;;;;;;;;;;;;;;;;;;;;;
2023/09/05 19:42:39;;;;;;;;;;;;;;;;;;5065942;28;20511;-88
2023/09/05 19:53:29;;;;;;;;;;;;;;;;;;5092677;28;19928;-85
2023/09/05 19:58:52;;;;;;;;;;;;;;;;;;5085949;28;20387;-84
2023/09/05 20:01:34;;;;;;;;;;;;;;;;;;;;;
2023/09/05 20:11:54;;;;;;;;;;;;;;;;;;5093461;28;19941;-85
2023/09/05 20:51:53;;;;;;;;;;;;;;;;;;5121036;22;19937;-85
2023/09/05 20:54:19;;;;;;;;;;;;;;;;;;5060874;28;19948;-86
2023/09/05 20:56:45;;;;;;;;;;;;;;;;;;5069575;28;19924;-84
2023/09/05 20:59:11;;;;;;;;;;;;;;;;;;5064328;28;20390;-83
2023/09/05 21:01:36;;;;;;;;;;;;;;;;;;5064825;28;19920;-85
2023/09/05 21:04:02;;;;;;;;;;;;;;;;;;5062959;28;19922;-85
2023/09/05 21:06:28;;;;;;;;;;;;;;;;;;5071194;28;19928;-85
2023/09/05 21:08:54;;;;;;;;;;;;;;;;;;5069692;28;19915;-84
2023/09/05 21:11:20;;;;;;;;;;;;;;;;;;5074748;28;19929;-87
2023/09/05 21:13:46;;;;;;;;;;;;;;;;;;5059538;28;19920;-85
2023/09/05 21:19:19;;;;;;;;;;;;;;;;;;5073001;28;19920;-85
2023/09/05 21:21:44;;;;;;;;;;;;;;;;;;5054513;28;19916;-84
2023/09/05 21:24:10;;;;;;;;;;;;;;;;;;5068828;28;19930;-85
2023/09/05 21:29:23;;;;;;;;;;;;;;;;;;5071497;28;20413;-84
2023/09/05 21:31:49;;;;;;;;;;;;;;;;;;5057526;28;19967;-84
2023/09/05 21:34:15;;;;;;;;;;;;;;;;;;5060155;28;19916;-84
2023/09/05 21:36:41;;;;;;;;;;;;;;;;;;5050401;28;19916;-85
2023/09/05 21:39:07;;;;;;;;;;;;;;;;;;5066973;28;19922;-84
2023/09/05 21:41:33;;;;;;;;;;;;;;;;;;5055311;28;19920;-85
2023/09/05 21:43:58;;;;;;;;;;;;;;;;;;5056887;28;19946;-85
2023/09/05 21:46:25;;;;;;;;;;;;;;;;;;5056653;28;19924;-85
2023/09/05 21:48:50;;;;;;;;;;;;;;;;;;5057051;28;19972;-85
2023/09/05 21:51:18;;;;;;;;;;;;;;;;;;5058784;28;19924;-85
2023/09/05 21:53:44;;;;;;;;;;;;;;;;;;5054819;28;19967;-87
2023/09/05 21:56:10;;;;;;;;;;;;;;;;;;5052376;28;20028;-85
2023/09/05 21:58:36;;;;;;;;;;;;;;;;;;5049160;28;19923;-85
2023/09/05 22:01:02;;;;;;;;;;;;;;;;;;5050750;28;19990;-84
2023/09/05 22:03:27;;;;;;;;;;;;;;;;;;5048869;28;20019;-84
2023/09/05 22:05:53;;;;;;;;;;;;;;;;;;5050565;28;19963;-85
2023/09/05 22:08:19;;;;;;;;;;;;;;;;;;5049382;28;19978;-85
2023/09/05 22:10:45;;;;;;;;;;;;;;;;;;5056351;28;19919;-85
2023/09/05 22:13:11;;;;;;;;;;;;;;;;;;5085683;28;19923;-86
2023/09/05 22:15:37;;;;;;;;;;;;;;;;;;5066253;28;19920;-85
2023/09/05 22:18:04;;;;;;;;;;;;;;;;;;5051732;28;19916;-85
2023/09/05 22:20:30;;;;;;;;;;;;;;;;;;5058866;28;19916;-85
2023/09/05 22:22:56;;;;;;;;;;;;;;;;;;5050777;28;19916;-84
2023/09/05 22:25:23;;;;;;;;;;;;;;;;;;5055287;28;19920;-85
2023/09/05 22:27:49;;;;;;;;;;;;;;;;;;5070287;28;20479;-85
2023/09/05 22:30:15;;;;;;;;;;;;;;;;;;5053445;28;19920;-85
2023/09/05 22:32:41;;;;;;;;;;;;;;;;;;5055538;28;20041;-85
2023/09/05 22:35:09;;;;;;;;;;;;;;;;;;5070280;28;19923;-85
2023/09/05 22:37:35;;;;;;;;;;;;;;;;;;5070072;28;19916;-85
2023/09/05 22:40:01;;;;;;;;;;;;;;;;;;5069921;28;19915;-85
2023/09/05 22:42:27;;;;;;;;;;;;;;;;;;5070525;28;20060;-85
2023/09/05 22:44:53;;;;;;;;;;;;;;;;;;5068233;28;20378;-85
2023/09/05 22:47:19;;;;;;;;;;;;;;;;;;5083964;28;19947;-85
2023/09/05 22:49:45;;;;;;;;;;;;;;;;;;5049772;28;20313;-85
2023/09/05 22:52:15;;;;;;;;;;;;;;;;;;5066914;28;19972;-85
2023/09/05 22:54:41;;;;;;;;;;;;;;;;;;5085268;28;19982;-84
2023/09/05 22:57:08;;;;;;;;;;;;;;;;;;5070483;28;19922;-84
2023/09/05 22:59:34;;;;;;;;;;;;;;;;;;5070075;28;20502;-85
2023/09/05 23:02:00;;;;;;;;;;;;;;;;;;5069933;28;20018;-85
2023/09/05 23:04:26;;;;;;;;;;;;;;;;;;5061711;28;19922;-86
2023/09/05 23:06:52;;;;;;;;;;;;;;;;;;5085348;28;20391;-86
2023/09/05 23:09:18;;;;;;;;;;;;;;;;;;5070184;28;19916;-85
2023/09/05 23:11:44;;;;;;;;;;;;;;;;;;5065163;28;19924;-85
2023/09/05 23:14:11;;;;;;;;;;;;;;;;;;5077259;28;20015;-86
2023/09/05 23:16:36;;;;;;;;;;;;;;;;;;5056553;28;20393;-85
2023/09/05 23:19:05;;;;;;;;;;;;;;;;;;5058837;28;19915;-85
2023/09/05 23:21:31;;;;;;;;;;;;;;;;;;5050627;28;19923;-86
2023/09/05 23:23:57;;;;;;;;;;;;;;;;;;5057724;28;19920;-85
2023/09/05 23:26:22;;;;;;;;;;;;;;;;;;5056461;28;19935;-85
2023/09/05 23:28:48;;;;;;;;;;;;;;;;;;5050284;28;19923;-85
2023/09/05 23:31:14;;;;;;;;;;;;;;;;;;5050567;28;19920;-87
2023/09/05 23:33:40;;;;;;;;;;;;;;;;;;5068349;28;19922;-84
2023/09/05 23:36:06;;;;;;;;;;;;;;;;;;5069894;28;20509;-85
2023/09/05 23:38:34;;;;;;;;;;;;;;;;;;5067897;28;19915;-85
2023/09/05 23:41:00;;;;;;;;;;;;;;;;;;5070092;28;20441;-84
2023/09/05 23:43:27;;;;;;;;;;;;;;;;;;5067925;28;20445;-84
2023/09/05 23:45:53;;;;;;;;;;;;;;;;;;5068708;28;20023;-85
2023/09/05 23:48:19;;;;;;;;;;;;;;;;;;5069561;28;19915;-86
2023/09/05 23:50:45;;;;;;;;;;;;;;;;;;5067786;28;19924;-85
2023/09/05 23:53:12;;;;;;;;;;;;;;;;;;5069195;28;20338;-85
2023/09/05 23:55:38;;;;;;;;;;;;;;;;;;5067686;28;20417;-85
2023/09/05 23:58:04;;;;;;;;;;;;;;;;;;5061405;28;20017;-84
